Detall de PIREP

Printer-friendly versionPDF version

[2014/06/11 09:59:00]
Flight IATA:CT2214
Pilot Number:042
Company ICAO:CAT
Aircraft Type:F100/A
PAX:48
Aircraft Registration:PFJ
Departing Airport: LFMP
Destination Airport: LFRS
Alternate Airport:LFPO
Online: VATSIM
Route:ORBIL/N0350F180 G36 GAI G39 SECHE/N0450F320 UN863 MANAK
Flight Level:F300
No Slew and time accel
No pause
Crash detect
Detect pilot in Cockpit between each 30 and 45 minutes
09:59 Zero fuel Weight: 81825 Lbs, Fuel Weight: 14660 Lbs
09:59 VATSIM:LFMP 110930Z 07005KT 350V120 9999 FEW070 30/15 Q1020 NOSIG
09:59 VATSIM:LFRS 110930Z 05005KT 320V110 CAVOK 21/11 Q1025 NOSIG
10:01 Parking Brakes off
10:03 Take-off
10:03 Take off Weight: 96172 Lbs
10:03 Wind: 001º @ 005 Knots Heading: 329º
10:03 POS N42º 44´ 55´´ E002º 51´ 58´´
10:03 Gear Up: 162 Knots
10:03 Flaps:2 at 162 Knots
10:04 Flaps:1 at 165 Knots
10:04 Flaps:0 at 179 Knots
10:18 Wind:296º@022 Knots Heading: 325º Ground Speed: 356 Knots Altitude 29557 ft
10:18 TOC
10:18 Fuel Weight: 12392 Lb
10:33 Wind:298º@013 Knots Heading: 329º Ground Speed: 447 Knots Altitude 30288 ft
10:38 TOD
10:38 Fuel Weight: 10648 Lb
10:48 Wind:039º@029 Knots Heading: 327º Ground Speed: 296 Knots Altitude 13369 ft
10:58 Flaps:1 at 219 Knots
11:01 Flaps:2 at 179 Knots
11:02 Gear Down: 172 Knots
11:02 Flaps:3 at 172 Knots
11:03 Wind:064º@005 Knots Heading: 033º Ground Speed: 163 Knots Altitude 2250 ft
11:05 TouchDown:Rate -264 ft/min Speed: 138 Knots
11:05 VATSIM:LFRS 111100Z VRB04KT CAVOK 23/10 Q1025 NOSIG
11:05 Land
11:05 Wind:066º@005 Knots
11:05 Heading: 025º
11:05 Flight Duration: 01:02
11:05 Landing Weight: 91416 Lbs
11:05 POS N47º 09´ 14´´ W001º 36´ 36´´
11:07 Parking brakes on
11:07 Block to Block Duration: 01:06
11:07 Final Fuel: 9503 Lbls
11:07 Spent Fuel: 5156 Lbls
11:07 Flight Length: 339 NM
11:07 TOD Land Length: 115 NM

Exportar CSV

Powered by Drupal - Modified by Danger4k